首页
METAR-TAF:

METAR-TAF

机场 :

埃利斯塔, 俄罗斯

纬度: 46-22N, 经度: 044-20E, 海拔: 150米

当前天气观测

该预报发布于38分钟前的02:00 UTC
风速8节,风向南转南东
温度 15°C
湿度 82%
气压 1013 hPa
能见度10公里或以上

METAR: URWI 010200Z AUTO 16004MPS 9999 // NSC 15/12 Q1013

时间: 06:38 (02:38 UTC)

预报

该预报发布于12小时和38分钟前的14:00 UTC
预报有效从31日的 15点(UTC)到 31日的 24点(UTC)
风速6节,风向西,有时为19节阵风
能见度10公里或以上
散云层高于3000英尺, 积雨云.
短暂存在
从 31日的 15点(UTC)到 31日的 21点(UTC)
风速12节,风向西南,有时为23节阵风
能見度: 6000
散云层高于1600英尺
多云层高于2000英尺, 积雨云.
小阵雨
几率 40% :
短暂存在
从 31日的 15点(UTC)到 31日的 21点(UTC)
雷暴, 小雨

TAF: URWI 311400Z 3115/3124 27003G10MPS 9999 SCT030CB TEMPO 3115/3121 23006G12MPS 6000 -SHRA SCT016 BKN020CB PROB40 TEMPO 3115/3121 -TSRA

超过4000个机场的气象观测和天气预报(METAR&TAF报告)。

可查询的气象台以黄色和红色小点在地图上表示。

将鼠标移到小点上方,可查看气象台名称。

然后点击查看天气观测和预报。

如需切换地图:点击带黑十字的绿色按钮放大地图;点击带横线的绿色按钮缩小地图;或者点击绿色箭头查看邻近地区的地图。


METAR-TAF: